createdAt,value
2023-02-17T00:02:15.832Z,50.83
2023-02-17T00:04:43.602Z,51.63
2023-02-17T00:07:11.668Z,51.57
2023-02-17T00:09:39.646Z,49.03
2023-02-17T00:12:08.196Z,50.37
2023-02-17T00:14:35.929Z,47.83
2023-02-17T00:17:03.926Z,47.87
2023-02-17T00:19:31.752Z,49.30
2023-02-17T00:22:02.496Z,47.50
2023-02-17T00:24:33.030Z,45.43
2023-02-17T00:27:01.221Z,46.90
2023-02-17T00:29:29.334Z,46.87
2023-02-17T00:31:57.817Z,48.67
2023-02-17T00:34:27.613Z,47.30
2023-02-17T00:36:55.788Z,45.00
2023-02-17T00:39:23.799Z,50.03
2023-02-17T00:41:51.781Z,46.57
2023-02-17T00:44:21.532Z,48.00
2023-02-17T00:46:52.756Z,47.23
2023-02-17T00:49:23.899Z,45.63
2023-02-17T00:51:52.097Z,47.10
2023-02-17T00:54:20.037Z,44.23
2023-02-17T00:56:48.238Z,43.37
2023-02-17T00:59:16.098Z,46.47
2023-02-17T01:01:44.104Z,47.00
2023-02-17T01:04:12.026Z,44.70
2023-02-17T01:06:40.474Z,43.03
2023-02-17T01:09:12.858Z,43.50
2023-02-17T01:11:41.230Z,42.50
2023-02-17T01:14:09.184Z,41.97
2023-02-17T01:16:39.450Z,42.50
2023-02-17T01:19:11.381Z,43.73
2023-02-17T01:21:39.799Z,42.90
2023-02-17T01:24:12.854Z,41.40
2023-02-17T01:26:41.104Z,41.67
2023-02-17T01:29:09.093Z,40.63
2023-02-17T01:31:36.840Z,44.20
2023-02-17T01:34:05.602Z,44.67
2023-02-17T01:36:33.523Z,41.47
2023-02-17T01:39:01.561Z,43.47
2023-02-17T01:41:29.572Z,46.20
2023-02-17T01:44:24.848Z,42.53
2023-02-17T01:46:56.654Z,41.23
2023-02-17T01:49:33.307Z,38.57
2023-02-17T01:52:30.699Z,40.10
2023-02-17T01:55:03.634Z,37.87
2023-02-17T01:57:36.780Z,36.83
2023-02-17T02:00:09.724Z,39.63
2023-02-17T02:02:42.384Z,38.20
2023-02-17T02:05:14.905Z,36.70
2023-02-17T02:07:44.502Z,36.67
2023-02-17T02:10:14.307Z,37.20
2023-02-17T02:12:43.444Z,36.87
2023-02-17T02:15:21.060Z,37.13
2023-02-17T02:18:04.134Z,37.17
2023-02-17T02:21:00.534Z,37.13
2023-02-17T02:23:52.985Z,38.33
2023-02-17T02:26:34.243Z,35.80
2023-02-17T02:29:01.948Z,36.20
2023-02-17T02:32:00.831Z,34.80
2023-02-17T02:34:50.162Z,39.10
2023-02-17T02:37:20.534Z,36.03
2023-02-17T02:39:52.823Z,37.43
2023-02-17T02:42:25.783Z,39.70
2023-02-17T02:44:53.694Z,38.27
2023-02-17T02:47:45.526Z,36.77
2023-02-17T02:50:20.948Z,39.53
2023-02-17T02:53:29.692Z,40.20
2023-02-17T02:56:21.715Z,38.13
2023-02-17T02:59:21.405Z,40.50
2023-02-17T03:02:13.083Z,38.07
2023-02-17T03:05:07.709Z,38.80
2023-02-17T03:07:56.676Z,39.17
2023-02-17T03:10:25.029Z,36.87
2023-02-17T03:12:52.896Z,38.67
2023-02-17T03:15:34.874Z,37.53
2023-02-17T03:18:03.498Z,37.97
2023-02-17T03:20:35.949Z,38.07
2023-02-17T03:23:05.361Z,38.13
2023-02-17T03:25:33.848Z,36.00
2023-02-17T03:28:01.913Z,38.13
2023-02-17T03:30:30.443Z,36.87
2023-02-17T03:32:58.481Z,36.03
2023-02-17T03:35:26.527Z,40.37
2023-02-17T03:37:54.206Z,39.57
2023-02-17T03:40:22.218Z,36.67
2023-02-17T03:42:50.192Z,38.60
2023-02-17T03:45:18.238Z,38.00
2023-02-17T03:47:45.548Z,39.90
2023-02-17T03:50:13.582Z,37.67
2023-02-17T03:52:41.296Z,38.47
2023-02-17T03:55:09.477Z,38.53
2023-02-17T03:57:37.444Z,39.43
2023-02-17T04:00:07.036Z,37.37
2023-02-17T04:02:43.706Z,36.40
2023-02-17T04:05:12.623Z,36.13
2023-02-17T04:07:40.103Z,37.27
2023-02-17T04:10:09.525Z,37.50
2023-02-17T04:12:37.451Z,35.23
2023-02-17T04:15:05.958Z,36.80
2023-02-17T04:17:33.778Z,36.93
2023-02-17T04:20:01.842Z,37.10
2023-02-17T04:22:29.597Z,37.23
2023-02-17T04:24:57.607Z,35.97
2023-02-17T04:27:25.730Z,37.27
2023-02-17T04:29:54.798Z,39.17
2023-02-17T04:32:22.491Z,37.77
2023-02-17T04:34:50.422Z,36.90
2023-02-17T04:37:18.138Z,37.00
2023-02-17T04:39:46.309Z,36.13
2023-02-17T04:42:14.122Z,38.23
2023-02-17T04:44:42.206Z,37.50
2023-02-17T04:47:10.067Z,36.57
2023-02-17T04:49:38.144Z,36.20
2023-02-17T04:52:05.951Z,36.07
2023-02-17T04:54:33.972Z,33.83
2023-02-17T04:57:01.804Z,35.33
2023-02-17T04:59:29.958Z,35.50
2023-02-17T05:01:57.716Z,36.53
2023-02-17T05:04:25.897Z,34.73
2023-02-17T05:06:54.237Z,35.90
2023-02-17T05:09:22.372Z,34.83
2023-02-17T05:11:50.254Z,35.27
2023-02-17T05:14:20.693Z,34.73
2023-02-17T05:16:48.552Z,34.07
2023-02-17T05:19:16.784Z,35.20
2023-02-17T05:21:44.635Z,34.03
2023-02-17T05:24:12.772Z,33.57
2023-02-17T05:26:40.561Z,34.57
2023-02-17T05:29:08.701Z,33.10
2023-02-17T05:31:36.589Z,33.07
2023-02-17T05:34:04.933Z,33.10
2023-02-17T05:36:32.584Z,33.80
2023-02-17T05:39:00.477Z,34.83
2023-02-17T05:41:28.935Z,32.73
2023-02-17T05:43:56.985Z,32.30
2023-02-17T05:46:24.359Z,34.97
2023-02-17T05:48:52.545Z,34.90
2023-02-17T05:51:20.434Z,32.80
2023-02-17T05:53:48.683Z,36.60
2023-02-17T05:56:16.417Z,34.47
2023-02-17T05:58:44.516Z,35.70
2023-02-17T06:01:13.051Z,36.37
2023-02-17T06:03:41.026Z,36.53
2023-02-17T06:06:09.749Z,37.90
2023-02-17T06:08:38.438Z,37.03
2023-02-17T06:11:05.943Z,35.57
2023-02-17T06:13:34.112Z,36.83
2023-02-17T06:16:02.241Z,38.03
2023-02-17T06:18:30.042Z,37.47
2023-02-17T06:20:58.587Z,37.30
2023-02-17T06:23:27.696Z,37.33
2023-02-17T06:25:55.624Z,35.80
2023-02-17T06:28:23.766Z,35.33
2023-02-17T06:30:51.707Z,35.27
2023-02-17T06:33:19.889Z,35.93
2023-02-17T06:35:51.670Z,34.33
2023-02-17T06:38:20.175Z,34.97
2023-02-17T06:40:47.940Z,35.70
2023-02-17T06:43:16.099Z,36.73
2023-02-17T06:45:44.178Z,34.37
2023-02-17T06:48:12.244Z,35.80
2023-02-17T06:50:40.059Z,36.80
2023-02-17T06:53:08.392Z,34.97
2023-02-17T06:55:37.362Z,37.90
2023-02-17T06:58:05.067Z,36.03
2023-02-17T07:00:32.420Z,36.80
2023-02-17T07:03:00.446Z,36.47
2023-02-17T07:05:28.798Z,34.67
2023-02-17T07:07:58.794Z,36.03
2023-02-17T07:10:26.428Z,35.63
2023-02-17T07:12:54.049Z,37.23
2023-02-17T07:15:21.864Z,36.43
2023-02-17T07:17:49.861Z,36.10
2023-02-17T07:20:17.755Z,35.20
2023-02-17T07:22:45.576Z,34.37
2023-02-17T07:25:13.148Z,35.17
2023-02-17T07:27:41.295Z,37.37
2023-02-17T07:30:09.273Z,38.93
2023-02-17T07:32:37.133Z,37.57
2023-02-17T07:35:04.714Z,36.60
2023-02-17T07:37:32.416Z,38.00
2023-02-17T07:39:59.666Z,38.70
2023-02-17T07:42:28.330Z,37.83
2023-02-17T07:44:55.645Z,39.47
2023-02-17T07:47:23.529Z,39.03
2023-02-17T07:49:51.281Z,38.77
2023-02-17T07:52:19.499Z,40.93
2023-02-17T07:54:46.775Z,42.53
2023-02-17T07:57:14.645Z,44.00
2023-02-17T07:59:41.848Z,43.97
2023-02-17T08:02:11.823Z,44.23
2023-02-17T08:04:39.441Z,44.73
2023-02-17T08:07:07.117Z,45.00
2023-02-17T08:10:01.143Z,48.67
2023-02-17T08:12:47.875Z,49.37
2023-02-17T08:15:15.540Z,50.17
2023-02-17T08:17:44.458Z,51.97
2023-02-17T08:20:13.561Z,51.70
2023-02-17T08:22:41.513Z,49.17
2023-02-17T08:25:08.859Z,50.93
2023-02-17T08:27:36.475Z,51.10
2023-02-17T08:30:04.481Z,51.23
2023-02-17T08:32:31.993Z,51.80
2023-02-17T08:34:59.469Z,51.83
2023-02-17T08:37:27.315Z,48.57
2023-02-17T08:39:54.661Z,48.90
2023-02-17T08:42:22.953Z,50.60
2023-02-17T08:44:50.313Z,47.80
2023-02-17T08:47:18.101Z,45.47
2023-02-17T08:49:45.557Z,47.07
2023-02-17T08:52:13.418Z,47.40
2023-02-17T08:54:42.124Z,48.60
2023-02-17T08:57:10.475Z,47.07
2023-02-17T08:59:38.981Z,46.67
2023-02-17T09:02:06.787Z,47.73
2023-02-17T09:04:35.758Z,46.43
2023-02-17T09:07:04.307Z,46.57
2023-02-17T09:09:32.746Z,47.43
2023-02-17T09:12:01.332Z,46.60
2023-02-17T09:14:29.498Z,47.37
2023-02-17T09:16:58.053Z,48.33
2023-02-17T09:19:26.994Z,47.97
2023-02-17T09:21:56.326Z,46.70
2023-02-17T09:24:24.427Z,46.40
2023-02-17T09:26:52.508Z,47.60
2023-02-17T09:29:20.652Z,44.90
2023-02-17T09:31:48.622Z,47.67
2023-02-17T09:34:16.732Z,47.07
2023-02-17T09:36:45.096Z,48.97
2023-02-17T09:39:14.281Z,49.23
2023-02-17T09:41:45.371Z,46.50
2023-02-17T09:44:24.192Z,48.43
2023-02-17T09:47:05.961Z,47.17
2023-02-17T09:49:43.862Z,47.23
2023-02-17T09:52:24.511Z,45.43
2023-02-17T09:54:55.805Z,46.27
2023-02-17T09:57:28.410Z,48.33
2023-02-17T10:00:12.210Z,45.67
2023-02-17T10:03:03.393Z,47.60
2023-02-17T10:05:38.462Z,46.20
2023-02-17T10:08:13.164Z,43.37
2023-02-17T10:11:06.052Z,46.70
2023-02-17T10:13:36.800Z,45.87
2023-02-17T10:16:12.133Z,44.73
2023-02-17T10:18:51.177Z,44.83
2023-02-17T10:21:24.230Z,43.63
2023-02-17T10:23:52.662Z,44.70
2023-02-17T10:26:39.564Z,44.60
2023-02-17T10:29:21.943Z,44.93
2023-02-17T10:32:12.319Z,48.77
2023-02-17T10:34:48.931Z,48.77
2023-02-17T10:37:42.330Z,48.23
2023-02-17T10:40:16.287Z,47.13
2023-02-17T10:42:43.876Z,46.40
2023-02-17T10:45:33.833Z,48.17
2023-02-17T10:48:08.745Z,45.50
2023-02-17T10:50:38.203Z,45.53
2023-02-17T10:53:17.721Z,44.60
2023-02-17T10:56:06.955Z,44.47
2023-02-17T10:58:46.601Z,43.67
2023-02-17T11:01:14.487Z,43.93
2023-02-17T11:03:42.199Z,42.37
2023-02-17T11:06:15.652Z,42.07
2023-02-17T11:08:48.822Z,41.50
2023-02-17T11:11:25.073Z,43.53
2023-02-17T11:14:13.881Z,38.73
2023-02-17T11:16:47.638Z,39.90
2023-02-17T11:19:23.201Z,36.93
2023-02-17T11:21:52.729Z,36.80
2023-02-17T11:24:20.637Z,36.60
2023-02-17T11:27:01.663Z,39.07
2023-02-17T11:29:30.295Z,34.80
2023-02-17T11:31:58.677Z,36.37
2023-02-17T11:34:29.296Z,34.37
2023-02-17T11:37:03.427Z,32.63
2023-02-17T11:39:31.524Z,32.70
2023-02-17T11:41:59.592Z,34.43
2023-02-17T11:44:28.454Z,33.53
2023-02-17T11:47:12.897Z,30.03
2023-02-17T11:50:02.889Z,32.83
2023-02-17T11:52:56.245Z,30.80
2023-02-17T11:55:29.278Z,31.77
2023-02-17T11:58:07.373Z,33.20
2023-02-17T12:00:55.081Z,32.90
2023-02-17T12:03:44.572Z,31.40
2023-02-17T12:06:34.927Z,30.83
2023-02-17T12:09:24.794Z,31.53
2023-02-17T12:12:15.415Z,33.30
2023-02-17T12:14:50.369Z,33.93
2023-02-17T12:17:33.640Z,38.70
2023-02-17T12:20:21.726Z,37.17
2023-02-17T12:23:14.051Z,37.83
2023-02-17T12:25:58.066Z,36.90
2023-02-17T12:28:50.574Z,38.10
2023-02-17T12:31:49.172Z,40.27
2023-02-17T12:34:31.712Z,42.57
2023-02-17T12:51:39.721Z,36.17
2023-02-17T12:54:26.497Z,33.37
2023-02-17T12:57:05.318Z,35.63
2023-02-17T12:59:36.842Z,34.10
2023-02-17T13:02:13.833Z,34.20
2023-02-17T13:04:48.486Z,35.27
2023-02-17T13:07:16.671Z,34.07
2023-02-17T13:09:49.545Z,34.40
2023-02-17T13:12:17.471Z,34.83
2023-02-17T13:14:50.944Z,35.23
2023-02-17T13:17:35.436Z,35.97
2023-02-17T13:20:14.855Z,36.67
2023-02-17T13:22:44.343Z,33.57
2023-02-17T13:25:37.255Z,35.70
2023-02-17T13:28:20.496Z,37.00
2023-02-17T13:30:52.699Z,38.00
2023-02-17T13:33:24.683Z,35.53
2023-02-17T13:35:53.353Z,35.03
2023-02-17T13:38:32.290Z,34.53
2023-02-17T13:41:04.655Z,35.70
2023-02-17T13:43:41.721Z,35.17
2023-02-17T13:46:26.326Z,36.30
2023-02-17T13:49:06.133Z,36.63
2023-02-17T13:51:34.608Z,35.00
2023-02-17T13:54:08.265Z,34.20
2023-02-17T13:56:36.270Z,35.93
2023-02-17T13:59:18.059Z,36.03
2023-02-17T14:01:47.161Z,36.40
2023-02-17T14:04:23.298Z,35.93
2023-02-17T14:06:52.933Z,34.37
2023-02-17T14:09:24.571Z,36.13
2023-02-17T14:11:54.321Z,37.07
2023-02-17T14:14:24.819Z,35.50
2023-02-17T14:17:34.029Z,36.33
2023-02-17T14:20:01.615Z,36.37
2023-02-17T14:22:35.786Z,35.60
2023-02-17T14:25:12.138Z,36.00
2023-02-17T14:27:44.768Z,38.03
2023-02-17T14:30:29.490Z,34.83
2023-02-17T14:33:16.525Z,33.93
2023-02-17T14:36:11.706Z,34.07
2023-02-17T14:38:43.078Z,34.20
2023-02-17T14:41:11.242Z,37.60
2023-02-17T14:43:39.653Z,35.13
2023-02-17T14:46:07.377Z,30.97
2023-02-17T14:48:35.855Z,33.73
2023-02-17T14:51:03.871Z,32.03
2023-02-17T14:53:36.705Z,34.87
2023-02-17T14:56:31.407Z,31.83
2023-02-17T14:58:59.775Z,31.83
2023-02-17T15:01:28.025Z,28.93
2023-02-17T15:03:56.750Z,31.20
2023-02-17T15:06:34.578Z,28.80
2023-02-17T15:09:03.483Z,29.00
2023-02-17T15:11:37.678Z,29.37
2023-02-17T15:14:07.281Z,27.93
2023-02-17T15:16:35.394Z,28.80
2023-02-17T15:19:03.604Z,27.20
2023-02-17T15:21:33.770Z,27.47
2023-02-17T15:24:04.527Z,27.37
2023-02-17T15:26:33.348Z,25.77
2023-02-17T15:29:02.578Z,27.30
2023-02-17T15:31:34.085Z,25.33
2023-02-17T15:34:02.724Z,28.53
2023-02-17T15:36:33.559Z,23.90
2023-02-17T15:39:02.199Z,25.83
2023-02-17T15:41:31.940Z,27.57
2023-02-17T15:44:04.689Z,25.47
2023-02-17T15:46:35.137Z,26.57
2023-02-17T15:49:05.352Z,25.33
2023-02-17T15:51:33.296Z,24.27
2023-02-17T15:54:01.948Z,23.73
2023-02-17T15:56:43.511Z,24.37
2023-02-17T15:59:21.715Z,25.13
2023-02-17T16:01:51.277Z,23.47
2023-02-17T16:04:20.538Z,23.77
2023-02-17T16:06:49.842Z,24.37
2023-02-17T16:09:21.515Z,24.07
2023-02-17T16:11:56.925Z,24.97
2023-02-17T16:14:35.883Z,24.47
2023-02-17T16:17:10.512Z,24.13
2023-02-17T16:19:39.765Z,25.73
2023-02-17T16:22:08.725Z,26.10
2023-02-17T16:24:37.938Z,26.53
2023-02-17T16:27:10.370Z,26.43
2023-02-17T16:29:39.183Z,27.23
2023-02-17T16:32:08.216Z,26.63
2023-02-17T16:34:36.916Z,27.40
2023-02-17T16:37:13.002Z,26.57
2023-02-17T16:39:41.970Z,27.53
2023-02-17T16:42:15.850Z,27.20
2023-02-17T16:44:45.234Z,26.30
2023-02-17T16:47:23.069Z,26.97
2023-02-17T16:49:52.619Z,28.13
2023-02-17T16:52:28.233Z,26.70
2023-02-17T16:54:57.273Z,28.10
2023-02-17T16:57:26.664Z,27.43
2023-02-17T16:59:56.631Z,27.63
2023-02-17T17:02:25.827Z,27.37
2023-02-17T17:04:55.091Z,28.20
2023-02-17T17:07:23.992Z,28.53
2023-02-17T17:10:15.457Z,28.47
2023-02-17T17:12:43.524Z,29.70
2023-02-17T17:15:14.185Z,28.87
2023-02-17T17:18:02.064Z,29.87
2023-02-17T17:20:37.263Z,31.83
2023-02-17T17:23:11.850Z,31.20
2023-02-17T17:25:42.978Z,29.23
2023-02-17T17:28:19.124Z,30.70
2023-02-17T17:30:48.686Z,28.97
2023-02-17T17:33:17.746Z,29.03
2023-02-17T17:35:47.107Z,29.73
2023-02-17T17:38:16.045Z,27.30
2023-02-17T17:40:53.674Z,29.43
2023-02-17T17:44:02.813Z,28.93
2023-02-17T17:46:34.483Z,30.30
2023-02-17T17:49:04.908Z,29.00
2023-02-17T17:51:34.172Z,26.80
2023-02-17T17:54:02.026Z,25.80
2023-02-17T17:56:36.432Z,27.77
2023-02-17T17:59:05.017Z,25.27
2023-02-17T18:01:33.795Z,23.97
2023-02-17T18:04:01.999Z,25.30
2023-02-17T18:06:51.860Z,23.97
2023-02-17T18:09:31.622Z,22.77
2023-02-17T18:12:04.623Z,23.23
2023-02-17T18:14:32.781Z,22.63
2023-02-17T18:17:00.826Z,20.63
2023-02-17T18:19:30.609Z,21.87
2023-02-17T18:21:58.761Z,19.50
2023-02-17T18:24:26.649Z,20.80
2023-02-17T18:26:55.152Z,19.47
2023-02-17T18:29:23.907Z,22.83
2023-02-17T18:31:52.890Z,18.13
2023-02-17T18:34:23.475Z,18.03
2023-02-17T18:36:52.182Z,19.57
2023-02-17T18:39:20.784Z,18.70
2023-02-17T18:41:50.073Z,17.30
2023-02-17T18:44:21.195Z,17.20
2023-02-17T18:46:50.771Z,18.27
2023-02-17T18:49:19.699Z,17.10
2023-02-17T18:51:48.602Z,16.33
2023-02-17T18:54:17.457Z,18.43
2023-02-17T18:56:46.126Z,19.50
2023-02-17T18:59:13.831Z,18.23
2023-02-17T19:01:44.160Z,21.67
2023-02-17T19:04:13.529Z,20.03
2023-02-17T19:06:41.984Z,17.77
2023-02-17T19:09:13.897Z,17.60
2023-02-17T19:11:42.586Z,17.10
2023-02-17T19:14:10.398Z,11.83
2023-02-17T19:16:38.339Z,12.00
2023-02-17T19:19:06.844Z,10.03
2023-02-17T19:21:36.443Z,10.53
2023-02-17T19:24:04.233Z,8.47
2023-02-17T19:26:32.787Z,7.93
2023-02-17T19:29:00.686Z,7.33
2023-02-17T19:31:29.217Z,5.43
2023-02-17T19:33:57.779Z,5.03
2023-02-17T19:36:25.901Z,5.57
2023-02-17T19:38:56.657Z,5.43
2023-02-17T19:41:25.138Z,6.10
2023-02-17T19:43:53.182Z,4.23
2023-02-17T19:46:22.924Z,6.40
2023-02-17T19:48:51.285Z,5.50
2023-02-17T19:51:20.064Z,5.10
2023-02-17T19:53:48.927Z,9.53
2023-02-17T19:56:21.601Z,7.07
2023-02-17T19:58:50.500Z,4.50
2023-02-17T20:01:31.010Z,12.17
2023-02-17T20:03:59.741Z,6.70
2023-02-17T20:06:35.252Z,8.30
2023-02-17T20:09:06.416Z,8.83
2023-02-17T20:11:34.898Z,4.40
2023-02-17T20:14:03.994Z,5.57
2023-02-17T20:16:32.246Z,10.33
2023-02-17T20:19:02.927Z,5.00
2023-02-17T20:21:33.473Z,9.00
2023-02-17T20:24:01.670Z,3.50
2023-02-17T20:26:39.310Z,5.87
2023-02-17T20:29:08.485Z,6.37
2023-02-17T20:31:39.701Z,5.60
2023-02-17T20:34:15.154Z,3.60
2023-02-17T20:36:44.187Z,4.57
2023-02-17T20:39:13.104Z,3.30
2023-02-17T20:41:42.743Z,4.03
2023-02-17T20:44:12.717Z,3.30
2023-02-17T20:46:43.508Z,4.80
2023-02-17T20:49:12.246Z,5.20
2023-02-17T20:51:41.458Z,5.13
2023-02-17T20:54:09.468Z,2.87
2023-02-17T20:56:44.154Z,5.93
2023-02-17T20:59:13.730Z,6.00
2023-02-17T21:01:43.728Z,3.97
2023-02-17T21:04:14.587Z,4.77
2023-02-17T21:06:44.042Z,4.33
2023-02-17T21:09:17.949Z,4.40
2023-02-17T21:11:46.758Z,5.10
2023-02-17T21:14:16.032Z,3.47
2023-02-17T21:16:46.712Z,5.07
2023-02-17T21:19:15.620Z,2.77
2023-02-17T21:21:43.829Z,3.23
2023-02-17T21:24:12.625Z,7.27
2023-02-17T21:26:42.605Z,3.43
2023-02-17T21:29:12.785Z,3.70
2023-02-17T21:31:43.524Z,7.30
2023-02-17T21:34:14.296Z,7.63
2023-02-17T21:36:44.612Z,5.30
2023-02-17T21:39:14.619Z,4.57
2023-02-17T21:41:45.196Z,7.00
2023-02-17T21:44:32.010Z,7.93
2023-02-17T21:47:00.347Z,7.23
2023-02-17T21:49:28.767Z,9.30
2023-02-17T21:51:57.473Z,10.80
2023-02-17T21:54:25.544Z,10.37
2023-02-17T21:56:54.117Z,8.90
2023-02-17T21:59:22.534Z,7.50
2023-02-17T22:01:53.842Z,4.93
2023-02-17T22:04:22.535Z,6.57
2023-02-17T22:06:51.001Z,9.97
2023-02-17T22:09:18.775Z,4.30
2023-02-17T22:11:47.593Z,4.20
2023-02-17T22:14:19.408Z,6.13
2023-02-17T22:16:48.952Z,7.53
2023-02-17T22:19:19.859Z,5.30
2023-02-17T22:21:47.883Z,5.20
2023-02-17T22:24:16.085Z,5.73
2023-02-17T22:26:44.121Z,14.20
2023-02-17T22:29:11.874Z,8.30
2023-02-17T22:31:39.942Z,5.87
2023-02-17T22:34:10.138Z,6.77
2023-02-17T22:36:38.564Z,3.97
2023-02-17T22:39:08.312Z,4.80
2023-02-17T22:41:37.381Z,5.03
2023-02-17T22:44:05.197Z,4.13
2023-02-17T22:46:33.524Z,3.90
2023-02-17T22:49:01.118Z,5.13
2023-02-17T22:51:32.132Z,5.63
2023-02-17T22:54:01.419Z,4.37
2023-02-17T22:56:30.453Z,4.53
2023-02-17T22:59:01.545Z,5.03
2023-02-17T23:01:31.798Z,4.40
2023-02-17T23:03:59.727Z,5.03
2023-02-17T23:06:33.439Z,3.83
2023-02-17T23:09:01.618Z,3.83
2023-02-17T23:11:50.502Z,4.20
2023-02-17T23:14:38.333Z,3.90
2023-02-17T23:17:13.554Z,3.20
2023-02-17T23:19:42.692Z,3.90
2023-02-17T23:22:16.333Z,4.70
2023-02-17T23:24:45.649Z,4.13
2023-02-17T23:27:14.520Z,4.47
2023-02-17T23:29:42.501Z,4.50
2023-02-17T23:32:10.611Z,4.57
2023-02-17T23:34:38.730Z,4.30
2023-02-17T23:37:06.689Z,4.63
2023-02-17T23:39:38.516Z,4.20
2023-02-17T23:42:07.468Z,4.20
2023-02-17T23:44:35.559Z,4.33
2023-02-17T23:47:03.868Z,3.80
2023-02-17T23:49:31.804Z,4.40
2023-02-17T23:51:59.989Z,3.90
2023-02-17T23:54:28.642Z,3.67
2023-02-17T23:56:56.618Z,3.40
2023-02-17T23:59:24.331Z,3.77
